createdAt,value
2018-09-08T00:00:56.041Z,80.30
2018-09-08T00:03:24.625Z,80.30
2018-09-08T00:05:53.816Z,80.30
2018-09-08T00:08:22.342Z,80.20
2018-09-08T00:10:50.983Z,80.40
2018-09-08T00:13:19.422Z,80.50
2018-09-08T00:15:53.193Z,80.50
2018-09-08T00:18:26.901Z,80.70
2018-09-08T00:21:00.785Z,80.70
2018-09-08T00:23:34.832Z,80.80
2018-09-08T00:26:08.751Z,81.10
2018-09-08T00:28:45.951Z,81.00
2018-09-08T00:31:17.678Z,81.20
2018-09-08T00:33:47.543Z,81.30
2018-09-08T00:36:16.171Z,81.40
2018-09-08T00:38:44.734Z,81.60
2018-09-08T00:41:13.340Z,81.70
2018-09-08T00:43:41.845Z,81.80
2018-09-08T00:46:10.942Z,82.00
2018-09-08T00:48:39.476Z,81.90
2018-09-08T00:51:07.979Z,82.10
2018-09-08T00:53:36.518Z,82.10
2018-09-08T00:56:17.955Z,82.30
2018-09-08T00:58:51.664Z,82.30
2018-09-08T01:01:30.802Z,82.30
2018-09-08T01:03:59.624Z,82.20
2018-09-08T01:06:39.864Z,82.40
2018-09-08T01:09:08.704Z,82.50
2018-09-08T01:11:37.176Z,82.50
2018-09-08T01:14:06.370Z,82.60
2018-09-08T01:16:35.028Z,82.50
2018-09-08T01:19:03.685Z,82.50
2018-09-08T01:21:32.705Z,82.60
2018-09-08T01:24:01.717Z,82.60
2018-09-08T01:26:30.450Z,82.70
2018-09-08T01:28:59.042Z,82.60
2018-09-08T01:31:27.569Z,82.40
2018-09-08T01:33:56.551Z,82.30
2018-09-08T01:36:25.161Z,82.10
2018-09-08T01:38:53.653Z,82.10
2018-09-08T01:41:22.217Z,82.20
2018-09-08T01:43:51.002Z,82.30
2018-09-08T01:46:19.631Z,82.40
2018-09-08T01:48:48.141Z,82.60
2018-09-08T01:51:17.650Z,82.70
2018-09-08T01:53:46.305Z,82.80
2018-09-08T01:56:14.801Z,82.80
2018-09-08T01:58:45.432Z,82.90
2018-09-08T02:01:13.971Z,82.70
2018-09-08T02:03:43.020Z,82.50
2018-09-08T02:06:12.458Z,82.30
2018-09-08T02:08:41.060Z,82.30
2018-09-08T02:11:09.538Z,82.20
2018-09-08T02:13:38.493Z,82.30
2018-09-08T02:16:07.063Z,82.30
2018-09-08T02:18:35.543Z,82.40
2018-09-08T02:21:04.047Z,82.50
2018-09-08T02:23:32.589Z,82.90
2018-09-08T02:26:02.543Z,82.50
2018-09-08T02:28:32.626Z,82.30
2018-09-08T02:31:01.362Z,82.10
2018-09-08T02:33:29.918Z,82.10
2018-09-08T02:35:58.401Z,81.80
2018-09-08T02:38:26.883Z,81.80
2018-09-08T02:40:55.367Z,81.80
2018-09-08T02:43:23.972Z,81.70
2018-09-08T02:45:52.700Z,81.60
2018-09-08T02:48:21.352Z,81.60
2018-09-08T02:50:48.715Z,81.50
2018-09-08T02:53:16.113Z,81.60
2018-09-08T02:55:43.551Z,81.60
2018-09-08T02:58:11.018Z,81.70
2018-09-08T03:00:38.702Z,81.60
2018-09-08T03:03:06.147Z,81.70
2018-09-08T03:05:33.485Z,81.70
2018-09-08T03:08:01.116Z,81.60
2018-09-08T03:10:28.554Z,81.70
2018-09-08T03:12:56.381Z,81.60
2018-09-08T03:15:23.724Z,81.60
2018-09-08T03:17:55.713Z,82.20
2018-09-08T03:20:23.048Z,81.30
2018-09-08T03:22:50.614Z,81.10
2018-09-08T03:25:18.395Z,81.10
2018-09-08T03:27:45.826Z,81.10
2018-09-08T03:30:13.346Z,81.00
2018-09-08T03:32:40.921Z,80.90
2018-09-08T03:35:08.633Z,80.80
2018-09-08T03:37:36.125Z,80.00
2018-09-08T03:40:03.612Z,80.30
2018-09-08T03:42:31.165Z,80.20
2018-09-08T03:45:02.145Z,80.10
2018-09-08T03:47:29.584Z,80.00
2018-09-08T03:49:57.138Z,79.80
2018-09-08T03:52:24.494Z,79.80
2018-09-08T03:54:51.867Z,79.60
2018-09-08T03:57:19.530Z,79.70
2018-09-08T03:59:58.109Z,79.80
2018-09-08T04:02:25.767Z,79.70
2018-09-08T04:04:54.623Z,79.70
2018-09-08T04:07:23.125Z,79.90
2018-09-08T04:09:52.186Z,79.90
2018-09-08T04:12:21.401Z,80.00
2018-09-08T04:14:50.204Z,79.90
2018-09-08T04:17:19.095Z,79.80
2018-09-08T04:19:48.007Z,79.80
2018-09-08T04:22:21.009Z,80.00
2018-09-08T04:24:49.679Z,80.00
2018-09-08T04:27:18.548Z,80.90
2018-09-08T04:29:46.982Z,80.30
2018-09-08T04:32:15.545Z,80.30
2018-09-08T04:34:44.563Z,80.30
2018-09-08T04:37:13.230Z,80.40
2018-09-08T04:39:41.705Z,80.30
2018-09-08T04:42:10.184Z,80.30
2018-09-08T04:44:38.687Z,79.70
2018-09-08T04:47:07.245Z,80.30
2018-09-08T04:49:36.270Z,80.30
2018-09-08T04:52:05.018Z,80.30
2018-09-08T04:54:34.416Z,80.50
2018-09-08T04:57:03.385Z,80.60
2018-09-08T04:59:32.556Z,80.80
2018-09-08T05:02:01.775Z,81.40
2018-09-08T05:04:31.164Z,80.60
2018-09-08T05:06:59.656Z,80.50
2018-09-08T05:09:29.165Z,80.40
2018-09-08T05:11:57.627Z,80.40
2018-09-08T05:14:26.103Z,80.30
2018-09-08T05:16:54.833Z,80.30
2018-09-08T05:19:26.053Z,79.90
2018-09-08T05:21:54.529Z,79.70
2018-09-08T05:24:22.999Z,79.10
2018-09-08T05:26:51.495Z,78.70
2018-09-08T05:29:20.534Z,78.50
2018-09-08T05:31:49.474Z,78.10
2018-09-08T05:34:19.075Z,77.80
2018-09-08T05:36:47.988Z,77.70
2018-09-08T05:42:10.252Z,77.10
2018-09-08T05:44:38.946Z,76.70
2018-09-08T05:47:09.823Z,76.40
2018-09-08T05:49:38.716Z,76.00
2018-09-08T05:52:08.938Z,76.10
2018-09-08T05:54:37.881Z,76.30
2018-09-08T05:57:08.751Z,76.10
2018-09-08T05:59:38.326Z,76.00
2018-09-08T06:02:07.656Z,75.90
2018-09-08T06:04:36.582Z,75.90
2018-09-08T06:07:06.745Z,75.90
2018-09-08T06:09:48.697Z,75.60
2018-09-08T06:12:17.695Z,75.60
2018-09-08T06:14:46.772Z,75.70
2018-09-08T06:17:16.275Z,75.70
2018-09-08T06:19:47.537Z,75.10
2018-09-08T06:22:17.063Z,74.40
2018-09-08T06:24:46.737Z,73.80
2018-09-08T06:27:18.536Z,73.40
2018-09-08T06:29:48.181Z,73.40
2018-09-08T06:32:21.576Z,73.60
2018-09-08T06:34:55.982Z,73.40
2018-09-08T06:37:24.955Z,73.30
2018-09-08T06:39:53.836Z,73.20
2018-09-08T06:42:23.418Z,74.00
2018-09-08T06:44:54.368Z,72.90
2018-09-08T06:47:23.072Z,72.70
2018-09-08T06:49:53.032Z,72.70
2018-09-08T06:52:22.835Z,72.40
2018-09-08T06:54:51.922Z,72.40
2018-09-08T06:57:31.106Z,71.90
2018-09-08T07:00:00.032Z,71.90
2018-09-08T07:02:29.140Z,71.80
2018-09-08T07:04:58.031Z,71.70
2018-09-08T07:07:26.826Z,71.60
2018-09-08T07:09:55.733Z,71.30
2018-09-08T07:12:24.535Z,71.70
2018-09-08T07:14:53.397Z,70.60
2018-09-08T07:17:21.938Z,70.50
2018-09-08T07:19:51.135Z,70.20
2018-09-08T07:22:23.262Z,70.00
2018-09-08T07:24:56.682Z,70.00
2018-09-08T07:27:26.687Z,70.10
2018-09-08T07:30:01.661Z,70.10
2018-09-08T07:32:34.784Z,69.80
2018-09-08T07:35:04.996Z,69.20
2018-09-08T07:37:36.459Z,68.70
2018-09-08T07:40:06.314Z,68.60
2018-09-08T07:42:36.531Z,68.50
2018-09-08T07:45:05.804Z,68.90
2018-09-08T07:47:35.110Z,67.80
2018-09-08T07:50:05.764Z,67.70
2018-09-08T07:52:35.460Z,67.20
2018-09-08T07:55:06.180Z,67.00
2018-09-08T07:57:38.664Z,66.80
2018-09-08T08:03:23.711Z,66.50
2018-09-08T08:08:45.266Z,66.30
2018-09-08T08:11:17.395Z,65.30
2018-09-08T08:13:54.537Z,65.30
2018-09-08T08:16:31.194Z,65.40
2018-09-08T08:27:54.509Z,65.90
2018-09-08T08:30:42.283Z,64.00
2018-09-08T08:33:30.962Z,63.40
2018-09-08T08:38:56.520Z,62.30
2018-09-08T08:41:37.900Z,61.50
2018-09-08T08:44:15.109Z,61.00
2018-09-08T08:46:55.011Z,60.60
2018-09-08T08:49:43.625Z,60.70
2018-09-08T08:52:27.242Z,60.70
2018-09-08T08:55:06.284Z,60.10
2018-09-08T08:57:41.107Z,59.50
2018-09-08T09:00:25.948Z,59.30
2018-09-08T09:03:23.077Z,58.90
2018-09-08T09:08:52.554Z,57.40
2018-09-08T09:11:30.851Z,57.30
2018-09-08T09:17:28.597Z,56.20
2018-09-08T09:20:11.216Z,55.40
2018-09-08T09:22:53.804Z,54.60
2018-09-08T09:25:36.170Z,54.80
2018-09-08T09:28:25.829Z,55.00
2018-09-08T09:31:14.752Z,54.70
2018-09-08T09:37:14.269Z,54.20
2018-09-08T09:40:08.709Z,53.30
2018-09-08T09:42:45.396Z,53.00
2018-09-08T09:45:22.567Z,53.00
2018-09-08T09:48:11.829Z,52.60
2018-09-08T09:50:51.070Z,52.10
2018-09-08T09:53:35.173Z,52.20
2018-09-08T09:56:11.593Z,51.90
2018-09-08T09:58:40.804Z,51.70
2018-09-08T10:01:10.534Z,51.40
2018-09-08T10:04:11.531Z,51.40
2018-09-08T10:06:54.425Z,51.80
2018-09-08T10:12:04.386Z,50.80
2018-09-08T10:14:40.659Z,50.30
2018-09-08T10:17:16.009Z,50.20
2018-09-08T10:19:49.956Z,50.20
2018-09-08T10:22:26.692Z,50.00
2018-09-08T10:25:48.284Z,50.00
2018-09-08T10:41:35.656Z,49.70
2018-09-08T10:44:18.244Z,50.00
2018-09-08T10:46:57.030Z,49.40
2018-09-08T10:49:58.184Z,49.30
2018-09-08T10:52:38.270Z,49.00
2018-09-08T11:03:21.629Z,48.10
2018-09-08T11:05:58.432Z,48.40
2018-09-08T11:08:39.591Z,48.20
2018-09-08T11:11:22.043Z,48.40
2018-09-08T11:14:03.565Z,48.00
2018-09-08T11:22:52.467Z,46.80
2018-09-08T11:25:27.806Z,46.50
2018-09-08T11:27:57.204Z,47.00
2018-09-08T11:30:27.933Z,46.80
2018-09-08T11:32:57.650Z,46.80
2018-09-08T11:35:26.951Z,46.10
2018-09-08T11:37:56.459Z,45.50
2018-09-08T11:40:25.604Z,44.40
2018-09-08T11:42:54.877Z,43.20
2018-09-08T11:45:25.435Z,42.00
2018-09-08T11:47:54.907Z,40.80
2018-09-08T11:50:25.418Z,40.00
2018-09-08T11:52:55.091Z,39.00
2018-09-08T11:55:24.178Z,38.40
2018-09-08T11:57:54.405Z,36.90
2018-09-08T12:00:25.722Z,35.30
2018-09-08T12:03:03.373Z,34.70
2018-09-08T12:05:39.636Z,34.20
2018-09-08T12:08:27.616Z,34.20
2018-09-08T12:14:03.744Z,33.10
2018-09-08T12:16:42.942Z,31.80
2018-09-08T12:21:54.543Z,30.50
2018-09-08T12:24:25.192Z,30.10
2018-09-08T12:26:54.785Z,29.90
2018-09-08T12:29:29.825Z,29.60
2018-09-08T12:31:59.030Z,29.20
2018-09-08T12:34:29.004Z,28.80
2018-09-08T12:37:10.361Z,28.80
2018-09-08T12:39:41.708Z,28.40
2018-09-08T12:42:11.707Z,28.20
2018-09-08T12:44:40.986Z,28.00
2018-09-08T12:47:19.100Z,27.80
2018-09-08T12:49:49.832Z,27.70
2018-09-08T12:52:23.779Z,27.70
2018-09-08T12:54:52.656Z,27.60
2018-09-08T12:57:34.867Z,27.40
2018-09-08T13:00:05.626Z,26.90
2018-09-08T13:02:36.297Z,27.10
2018-09-08T13:05:05.033Z,26.80
2018-09-08T13:07:33.594Z,26.70
2018-09-08T13:10:02.709Z,26.60
2018-09-08T13:12:32.129Z,26.50
2018-09-08T13:15:01.222Z,26.80
2018-09-08T13:17:30.417Z,26.60
2018-09-08T13:20:00.744Z,26.60
2018-09-08T13:22:29.400Z,26.60
2018-09-08T13:24:58.595Z,26.70
2018-09-08T13:27:27.657Z,26.30
2018-09-08T13:29:56.624Z,26.30
2018-09-08T13:32:25.391Z,26.00
2018-09-08T13:34:54.912Z,25.70
2018-09-08T13:37:25.275Z,25.80
2018-09-08T13:39:57.414Z,25.50
2018-09-08T13:42:27.980Z,25.40
2018-09-08T13:44:58.682Z,25.40
2018-09-08T13:59:50.104Z,25.20
2018-09-08T14:15:55.874Z,25.30
2018-09-08T14:18:32.403Z,26.70
2018-09-08T14:21:08.110Z,26.60
2018-09-08T14:23:38.083Z,26.80
2018-09-08T14:26:27.980Z,27.20
2018-09-08T14:31:56.920Z,28.10
2018-09-08T14:34:40.100Z,28.50
2018-09-08T14:37:18.158Z,28.10
2018-09-08T14:40:05.001Z,28.90
2018-09-08T14:45:32.173Z,28.60
2018-09-08T14:48:14.288Z,29.20
2018-09-08T14:50:49.356Z,29.20
2018-09-08T14:53:18.550Z,29.40
2018-09-08T14:55:48.256Z,29.50
2018-09-08T14:58:21.014Z,29.40
2018-09-08T15:01:02.168Z,29.60
2018-09-08T15:03:33.682Z,30.40
2018-09-08T15:06:04.420Z,30.40
2018-09-08T15:08:35.200Z,30.30
2018-09-08T15:11:07.527Z,30.50
2018-09-08T15:13:37.760Z,30.60
2018-09-08T15:16:10.509Z,31.10
2018-09-08T15:18:44.285Z,31.30
2018-09-08T15:21:19.608Z,31.80
2018-09-08T15:23:55.617Z,32.20
2018-09-08T15:26:30.199Z,32.20
2018-09-08T15:29:09.171Z,32.40
2018-09-08T15:31:42.179Z,32.50
2018-09-08T15:34:27.863Z,33.00
2018-09-08T15:37:06.150Z,33.30
2018-09-08T15:39:38.566Z,33.20
2018-09-08T15:42:21.763Z,33.70
2018-09-08T15:44:58.815Z,34.00
2018-09-08T15:50:46.756Z,33.00
2018-09-08T15:53:25.148Z,32.00
2018-09-08T15:55:58.831Z,31.80
2018-09-08T15:58:31.186Z,31.40
2018-09-08T16:01:01.600Z,30.80
2018-09-08T16:03:30.813Z,30.10
2018-09-08T16:06:01.271Z,30.00
2018-09-08T16:08:31.168Z,29.80
2018-09-08T16:11:02.400Z,29.70
2018-09-08T16:13:32.841Z,29.60
2018-09-08T16:16:02.967Z,29.30
2018-09-08T16:21:25.800Z,29.20
2018-09-08T16:24:00.685Z,29.20
2018-09-08T16:26:37.694Z,29.40
2018-09-08T16:29:13.167Z,29.20
2018-09-08T16:31:47.613Z,29.00
2018-09-08T16:40:22.022Z,29.50
2018-09-08T16:49:45.203Z,30.10
2018-09-08T16:52:18.948Z,31.00
2018-09-08T16:54:55.113Z,30.80
2018-09-08T16:57:34.731Z,31.30
2018-09-08T17:00:09.514Z,31.90
2018-09-08T17:02:44.876Z,32.40
2018-09-08T17:08:19.911Z,33.00
2018-09-08T17:14:27.195Z,34.00
2018-09-08T17:17:02.001Z,34.50
2018-09-08T17:19:37.940Z,35.00
2018-09-08T17:25:07.963Z,35.90
2018-09-08T17:28:04.413Z,36.30
2018-09-08T17:31:00.248Z,36.60
2018-09-08T17:33:30.384Z,36.90
2018-09-08T17:36:06.422Z,37.10
2018-09-08T17:38:37.610Z,37.40
2018-09-08T17:41:08.906Z,37.80
2018-09-08T17:43:58.851Z,38.20
2018-09-08T17:46:40.535Z,38.30
2018-09-08T17:49:10.631Z,38.80
2018-09-08T17:51:43.301Z,39.10
2018-09-08T17:54:30.090Z,39.40
2018-09-08T17:57:02.066Z,39.80
2018-09-08T17:59:32.984Z,40.00
2018-09-08T18:02:04.529Z,40.30
2018-09-08T18:04:38.493Z,40.50
2018-09-08T18:07:07.763Z,40.90
2018-09-08T18:09:40.370Z,40.80
2018-09-08T18:12:09.905Z,41.00
2018-09-08T18:14:39.457Z,41.30
2018-09-08T18:17:10.193Z,41.50
2018-09-08T18:19:40.098Z,41.80
2018-09-08T18:22:09.738Z,42.10
2018-09-08T18:24:39.039Z,42.20
2018-09-08T18:27:08.534Z,42.30
2018-09-08T18:29:37.417Z,42.40
2018-09-08T18:32:06.838Z,42.70
2018-09-08T18:34:36.530Z,42.90
2018-09-08T18:37:05.126Z,43.10
2018-09-08T18:39:33.608Z,43.40
2018-09-08T18:42:10.152Z,43.60
2018-09-08T18:44:39.784Z,43.50
2018-09-08T18:47:09.590Z,43.60
2018-09-08T18:49:38.888Z,43.90
2018-09-08T18:52:08.292Z,43.80
2018-09-08T18:54:37.793Z,43.90
2018-09-08T18:57:13.028Z,44.00
2018-09-08T18:59:42.606Z,44.20
2018-09-08T19:02:15.901Z,44.20
2018-09-08T19:04:46.173Z,44.50
2018-09-08T19:07:16.063Z,44.60
2018-09-08T19:09:50.402Z,44.80
2018-09-08T19:12:20.232Z,44.90
2018-09-08T19:14:54.817Z,45.00
2018-09-08T19:17:36.598Z,45.10
2018-09-08T19:20:11.346Z,45.80
2018-09-08T19:22:41.663Z,45.60
2018-09-08T19:25:11.505Z,45.90
2018-09-08T19:27:41.276Z,46.20
2018-09-08T19:30:09.877Z,46.30
2018-09-08T19:32:38.805Z,46.50
2018-09-08T19:35:14.287Z,46.70
2018-09-08T19:37:44.137Z,46.90
2018-09-08T19:40:19.096Z,47.00
2018-09-08T19:42:49.735Z,47.10
2018-09-08T19:45:20.097Z,47.40
2018-09-08T19:47:54.230Z,47.40
2018-09-08T19:50:24.356Z,47.50
2018-09-08T19:52:59.475Z,47.50
2018-09-08T19:55:31.638Z,47.70
2018-09-08T19:58:06.496Z,47.80
2018-09-08T20:00:36.230Z,48.20
2018-09-08T20:03:07.251Z,48.20
2018-09-08T20:05:36.827Z,48.20
2018-09-08T20:08:06.902Z,48.30
2018-09-08T20:10:36.791Z,48.40
2018-09-08T20:13:06.886Z,48.50
2018-09-08T20:15:40.335Z,48.70
2018-09-08T20:18:09.833Z,48.80
2018-09-08T20:20:39.713Z,48.80
2018-09-08T20:23:09.658Z,48.90
2018-09-08T20:25:39.317Z,49.10
2018-09-08T20:28:09.833Z,49.20
2018-09-08T20:30:39.319Z,49.40
2018-09-08T20:33:10.145Z,49.60
2018-09-08T20:35:40.341Z,49.90
2018-09-08T20:38:10.136Z,50.00
2018-09-08T20:40:40.492Z,50.30
2018-09-08T20:43:10.818Z,50.60
2018-09-08T20:45:40.999Z,50.70
2018-09-08T20:48:12.086Z,50.80
2018-09-08T20:50:41.923Z,51.00
2018-09-08T20:53:11.910Z,51.20
2018-09-08T20:55:45.710Z,51.40
2018-09-08T20:58:18.729Z,51.50
2018-09-08T21:00:49.322Z,51.60
2018-09-08T21:03:19.458Z,51.80
2018-09-08T21:05:49.744Z,52.10
2018-09-08T21:08:19.356Z,52.10
2018-09-08T21:10:48.957Z,52.30
2018-09-08T21:13:19.015Z,52.50
2018-09-08T21:30:19.860Z,53.00
2018-09-08T21:32:50.350Z,53.20
2018-09-08T21:35:20.200Z,53.40
2018-09-08T21:37:51.026Z,53.70
2018-09-08T21:40:19.803Z,53.80
2018-09-08T21:42:49.966Z,53.90
2018-09-08T21:45:20.061Z,54.10
2018-09-08T21:47:49.966Z,54.20
2018-09-08T21:50:20.021Z,54.40
2018-09-08T21:52:50.022Z,54.60
2018-09-08T21:55:20.356Z,54.60
2018-09-08T21:58:01.001Z,54.70
2018-09-08T22:00:31.501Z,54.80
2018-09-08T22:03:01.285Z,54.90
2018-09-08T22:05:31.478Z,55.00
2018-09-08T22:08:01.361Z,55.20
2018-09-08T22:10:31.127Z,55.20
2018-09-08T22:13:00.559Z,55.10
2018-09-08T22:15:30.131Z,55.20
2018-09-08T22:18:00.647Z,55.30
2018-09-08T22:20:30.363Z,55.40
2018-09-08T22:23:01.040Z,55.50
2018-09-08T22:25:30.658Z,55.50
2018-09-08T22:28:00.838Z,55.60
2018-09-08T22:30:30.462Z,55.70
2018-09-08T22:33:00.581Z,55.80
2018-09-08T22:35:34.938Z,55.90
2018-09-08T22:38:05.094Z,55.90
2018-09-08T22:40:37.099Z,56.20
2018-09-08T22:43:08.413Z,56.20
2018-09-08T22:45:43.141Z,56.50
2018-09-08T22:48:13.560Z,56.50
2018-09-08T22:50:54.412Z,56.70
2018-09-08T22:53:37.234Z,56.70
2018-09-08T22:56:07.405Z,56.80
2018-09-08T22:58:38.965Z,57.00
2018-09-08T23:01:09.437Z,57.10
2018-09-08T23:03:39.927Z,57.20
2018-09-08T23:06:09.920Z,57.30
2018-09-08T23:08:40.986Z,57.50
2018-09-08T23:11:11.162Z,57.50
2018-09-08T23:13:41.480Z,57.60
2018-09-08T23:16:11.482Z,57.80
2018-09-08T23:18:42.925Z,57.80
2018-09-08T23:21:14.485Z,58.10
2018-09-08T23:23:44.843Z,58.20
2018-09-08T23:26:14.566Z,58.20
2018-09-08T23:28:44.489Z,58.20
2018-09-08T23:31:17.025Z,58.30
2018-09-08T23:33:46.795Z,58.40
2018-09-08T23:36:17.701Z,58.40
2018-09-08T23:38:48.368Z,58.40
2018-09-08T23:41:18.626Z,58.30
2018-09-08T23:43:52.576Z,58.30
2018-09-08T23:46:23.210Z,58.20
2018-09-08T23:48:53.669Z,58.40
2018-09-08T23:51:23.408Z,58.40
2018-09-08T23:53:53.518Z,58.50
2018-09-08T23:56:34.820Z,58.50
2018-09-08T23:59:05.602Z,58.60
